Time;durP1;ratioP1;P1;durP2;ratioP2;P2;SDS_P1;SDS_P2;PMS_P1;PMS_P2;Temp;Humidity;BMP_temperature;BMP_pressure;BME280_temperature;BME280_humidity;BME280_pressure;Samples;Min_cycle;Max_cycle;Signal;HPM_P1;HPM_P2
2023/09/01 00:03:30;;;;;;;238.27;96.37;;;;;;;;;;5073420;28;20486;-46
2023/09/01 00:05:58;;;;;;;230.37;92.87;;;;;;;;;;5073626;28;20869;-45
2023/09/01 00:11:10;;;;;;;231.67;93.00;;;;;;;;;;5069251;28;20411;-46
2023/09/01 00:13:36;;;;;;;234.63;95.97;;;;;;;;;;5073434;28;20507;-46
2023/09/01 00:16:27;;;;;;;231.37;92.97;;;;;;;;;;5082339;28;20442;-45
2023/09/01 00:18:53;;;;;;;230.80;91.67;;;;;;;;;;5067880;28;20503;-45
2023/09/01 00:21:19;;;;;;;230.10;92.53;;;;;;;;;;5072919;28;20441;-46
2023/09/01 00:23:45;;;;;;;231.97;94.10;;;;;;;;;;5073125;28;20459;-45
2023/09/01 00:26:11;;;;;;;232.40;96.33;;;;;;;;;;5073226;28;20417;-46
2023/09/01 00:28:37;;;;;;;231.97;93.73;;;;;;;;;;5073084;28;20404;-45
2023/09/01 00:31:03;;;;;;;230.80;92.17;;;;;;;;;;5073035;28;20498;-46
2023/09/01 00:33:29;;;;;;;228.07;90.57;;;;;;;;;;5072806;28;20471;-45
2023/09/01 00:35:56;;;;;;;231.13;91.40;;;;;;;;;;5072873;28;20410;-46
2023/09/01 00:38:24;;;;;;;230.87;91.63;;;;;;;;;;5072796;28;20507;-46
2023/09/01 00:40:50;;;;;;;230.47;94.30;;;;;;;;;;5072643;28;20443;-45
2023/09/01 00:43:17;;;;;;;232.27;95.57;;;;;;;;;;5072822;28;20463;-45
2023/09/01 00:45:43;;;;;;;231.57;93.70;;;;;;;;;;5072762;28;20443;-46
2023/09/01 00:48:09;;;;;;;234.50;97.77;;;;;;;;;;5072683;28;20492;-46
2023/09/01 00:50:36;;;;;;;232.33;95.63;;;;;;;;;;5072223;28;20428;-45
2023/09/01 00:53:04;;;;;;;229.87;91.23;;;;;;;;;;5074214;28;20432;-45
2023/09/01 00:55:30;;;;;;;228.63;90.47;;;;;;;;;;5072571;28;20788;-46
2023/09/01 00:57:56;;;;;;;229.97;91.17;;;;;;;;;;5072586;28;20460;-45
2023/09/01 01:00:22;;;;;;;229.57;89.03;;;;;;;;;;5072210;28;21030;-46
2023/09/01 01:02:48;;;;;;;230.07;89.17;;;;;;;;;;5071571;28;20797;-46
2023/09/01 01:05:15;;;;;;;229.50;89.57;;;;;;;;;;5071780;28;20805;-46
2023/09/01 01:07:46;;;;;;;236.90;92.87;;;;;;;;;;5066716;28;20425;-46
2023/09/01 01:10:15;;;;;;;229.13;89.20;;;;;;;;;;5079125;28;20409;-46
2023/09/01 01:12:40;;;;;;;227.90;86.37;;;;;;;;;;5071434;28;20515;-45
2023/09/01 01:15:09;;;;;;;230.17;91.07;;;;;;;;;;5072120;28;20436;-45
2023/09/01 01:17:39;;;;;;;228.70;88.80;;;;;;;;;;5071837;28;20500;-45
2023/09/01 01:20:14;;;;;;;229.37;89.83;;;;;;;;;;5071960;28;20495;-46
2023/09/01 01:22:46;;;;;;;229.77;91.43;;;;;;;;;;5063838;28;20435;-45
2023/09/01 01:25:12;;;;;;;225.97;86.87;;;;;;;;;;5071971;28;20432;-46
2023/09/01 01:27:38;;;;;;;231.27;91.57;;;;;;;;;;5071309;28;20421;-46
2023/09/01 01:30:09;;;;;;;233.97;92.63;;;;;;;;;;5071089;28;20431;-45
2023/09/01 01:32:35;;;;;;;230.80;88.77;;;;;;;;;;5071831;28;20491;-47
2023/09/01 01:35:01;;;;;;;227.80;89.40;;;;;;;;;;5072058;28;20404;-45
2023/09/01 01:37:31;;;;;;;229.17;90.83;;;;;;;;;;5071956;28;20408;-47
2023/09/01 01:39:59;;;;;;;232.30;91.40;;;;;;;;;;5071889;28;20408;-46
2023/09/01 01:42:27;;;;;;;228.30;88.67;;;;;;;;;;5071893;28;20405;-46
2023/09/01 01:44:54;;;;;;;229.53;91.27;;;;;;;;;;5071929;28;20473;-46
2023/09/01 01:47:21;;;;;;;230.97;91.67;;;;;;;;;;5071922;28;20895;-47
2023/09/01 01:49:47;;;;;;;235.47;93.80;;;;;;;;;;5071689;28;20404;-46
2023/09/01 01:52:13;;;;;;;229.30;90.60;;;;;;;;;;5071836;28;20437;-46
2023/09/01 01:54:39;;;;;;;231.87;92.67;;;;;;;;;;5071697;28;20429;-47
2023/09/01 01:57:24;;;;;;;230.17;91.33;;;;;;;;;;5071732;28;20450;-46
2023/09/01 01:59:50;;;;;;;231.00;90.00;;;;;;;;;;5071605;28;20418;-46
2023/09/01 02:02:15;;;;;;;229.83;90.07;;;;;;;;;;5071898;28;20815;-46
2023/09/01 02:04:42;;;;;;;228.17;89.13;;;;;;;;;;5071613;28;20416;-46
2023/09/01 02:07:08;;;;;;;231.27;90.80;;;;;;;;;;5071731;28;20908;-46
2023/09/01 02:09:34;;;;;;;232.23;92.10;;;;;;;;;;5071603;28;20390;-45
2023/09/01 02:12:00;;;;;;;231.10;90.60;;;;;;;;;;5071758;28;20414;-46
2023/09/01 02:14:26;;;;;;;229.83;90.33;;;;;;;;;;5071698;28;20440;-45
2023/09/01 02:16:52;;;;;;;231.00;91.30;;;;;;;;;;5071520;28;20491;-47
2023/09/01 02:19:17;;;;;;;235.37;95.37;;;;;;;;;;5071665;28;20459;-46
2023/09/01 02:21:45;;;;;;;232.00;91.10;;;;;;;;;;5071433;28;20408;-45
2023/09/01 02:24:29;;;;;;;228.63;89.27;;;;;;;;;;5071451;28;20416;-46
2023/09/01 02:27:14;;;;;;;230.27;91.80;;;;;;;;;;5071732;28;20403;-45
2023/09/01 02:29:58;;;;;;;232.40;92.03;;;;;;;;;;5071177;28;20920;-46
2023/09/01 02:32:24;;;;;;;230.03;91.00;;;;;;;;;;5071343;28;20817;-46
2023/09/01 02:34:50;;;;;;;233.10;93.60;;;;;;;;;;5071370;28;20400;-46
2023/09/01 02:37:16;;;;;;;230.57;91.30;;;;;;;;;;5071380;28;20442;-46
2023/09/01 02:39:42;;;;;;;237.50;96.13;;;;;;;;;;5072922;28;20420;-45
2023/09/01 02:42:08;;;;;;;230.27;90.70;;;;;;;;;;5075441;28;20415;-46
2023/09/01 02:44:34;;;;;;;227.57;87.00;;;;;;;;;;5075138;28;20506;-45
2023/09/01 02:47:00;;;;;;;230.77;90.63;;;;;;;;;;5075272;28;20501;-46
2023/09/01 02:49:26;;;;;;;232.67;94.97;;;;;;;;;;5075236;28;20439;-46
2023/09/01 02:51:52;;;;;;;231.70;94.20;;;;;;;;;;5074929;28;20422;-46
2023/09/01 02:54:18;;;;;;;230.90;93.30;;;;;;;;;;5075068;28;20424;-46
2023/09/01 02:56:43;;;;;;;231.07;92.03;;;;;;;;;;5075075;28;20927;-46
2023/09/01 02:59:09;;;;;;;234.07;93.77;;;;;;;;;;5075449;28;20458;-46
2023/09/01 03:01:36;;;;;;;229.77;90.77;;;;;;;;;;5074672;28;20428;-47
2023/09/01 03:04:06;;;;;;;229.97;92.00;;;;;;;;;;5075299;28;20420;-45
2023/09/01 03:06:32;;;;;;;229.23;90.97;;;;;;;;;;5074939;28;20810;-46
2023/09/01 03:08:58;;;;;;;230.87;91.50;;;;;;;;;;5074992;28;20407;-46
2023/09/01 03:11:24;;;;;;;230.97;93.77;;;;;;;;;;5074714;28;20410;-46
2023/09/01 03:13:50;;;;;;;235.67;96.57;;;;;;;;;;5074691;28;20431;-46
2023/09/01 03:16:16;;;;;;;230.90;91.87;;;;;;;;;;5074605;28;20542;-46
2023/09/01 03:18:42;;;;;;;232.10;93.80;;;;;;;;;;5074713;28;20469;-45
2023/09/01 03:21:09;;;;;;;232.17;94.33;;;;;;;;;;5074426;28;20407;-46
2023/09/01 03:23:35;;;;;;;234.57;94.87;;;;;;;;;;5074509;28;20428;-46
2023/09/01 03:26:01;;;;;;;230.47;93.83;;;;;;;;;;5074574;28;20495;-45
2023/09/01 03:28:27;;;;;;;230.10;90.30;;;;;;;;;;5074446;28;20469;-46
2023/09/01 03:30:53;;;;;;;233.47;95.33;;;;;;;;;;5074179;28;20803;-46
2023/09/01 03:33:19;;;;;;;230.57;92.37;;;;;;;;;;5074389;28;20765;-45
2023/09/01 03:35:45;;;;;;;231.17;90.97;;;;;;;;;;5074302;28;20442;-46
2023/09/01 03:38:11;;;;;;;226.03;89.27;;;;;;;;;;5074193;28;20451;-46
2023/09/01 03:40:37;;;;;;;231.73;94.87;;;;;;;;;;5074102;28;20397;-46
2023/09/01 03:43:03;;;;;;;233.70;95.70;;;;;;;;;;5074202;28;20449;-47
2023/09/01 03:45:29;;;;;;;234.67;95.90;;;;;;;;;;5074067;28;20412;-46
2023/09/01 03:47:55;;;;;;;229.50;92.20;;;;;;;;;;5074176;28;20392;-45
2023/09/01 03:50:21;;;;;;;231.37;91.80;;;;;;;;;;5073628;28;20746;-46
2023/09/01 03:52:47;;;;;;;231.67;90.90;;;;;;;;;;5087745;28;20431;-46
2023/09/01 03:55:13;;;;;;;231.10;92.00;;;;;;;;;;5094173;28;20887;-46
2023/09/01 03:57:39;;;;;;;232.47;92.20;;;;;;;;;;5094023;28;20458;-46
2023/09/01 04:00:12;;;;;;;233.83;96.13;;;;;;;;;;5093843;28;20899;-46
2023/09/01 04:02:38;;;;;;;231.87;92.63;;;;;;;;;;5094060;28;20762;-46
2023/09/01 04:05:04;;;;;;;233.87;95.80;;;;;;;;;;5094033;28;20406;-46
2023/09/01 04:07:30;;;;;;;233.50;94.13;;;;;;;;;;5094006;28;20421;-45
2023/09/01 04:09:58;;;;;;;236.73;97.43;;;;;;;;;;5093746;28;20799;-45
2023/09/01 04:12:24;;;;;;;234.77;96.40;;;;;;;;;;5093778;28;20537;-45
2023/09/01 04:14:50;;;;;;;235.27;97.50;;;;;;;;;;5093738;28;20945;-46
2023/09/01 04:17:16;;;;;;;237.43;99.43;;;;;;;;;;5093760;28;20486;-46
2023/09/01 04:19:42;;;;;;;233.43;93.33;;;;;;;;;;5093502;28;20483;-45
2023/09/01 04:22:07;;;;;;;230.17;91.97;;;;;;;;;;5093768;28;20400;-45
2023/09/01 04:24:33;;;;;;;233.30;94.30;;;;;;;;;;5093598;28;20419;-47
2023/09/01 04:26:59;;;;;;;232.67;93.23;;;;;;;;;;5093573;28;20482;-46
2023/09/01 04:29:26;;;;;;;234.50;94.50;;;;;;;;;;5093577;28;20391;-46
2023/09/01 04:31:52;;;;;;;236.87;99.10;;;;;;;;;;5093295;28;20794;-47
2023/09/01 04:34:19;;;;;;;234.77;97.00;;;;;;;;;;5093430;28;20827;-46
2023/09/01 04:36:45;;;;;;;235.70;95.87;;;;;;;;;;5093023;28;20913;-46
2023/09/01 04:39:12;;;;;;;231.07;93.27;;;;;;;;;;5093566;28;20473;-47
2023/09/01 04:41:38;;;;;;;234.00;97.53;;;;;;;;;;5093100;28;20918;-46
2023/09/01 04:44:04;;;;;;;234.27;95.73;;;;;;;;;;5093178;28;20442;-46
2023/09/01 04:46:30;;;;;;;233.47;95.07;;;;;;;;;;5093730;28;20392;-46
2023/09/01 04:48:56;;;;;;;234.83;97.40;;;;;;;;;;5093142;28;20777;-48
2023/09/01 04:51:22;;;;;;;229.90;93.80;;;;;;;;;;5090278;28;20423;-47
2023/09/01 04:53:49;;;;;;;235.10;97.07;;;;;;;;;;5072714;28;20422;-46
2023/09/01 04:56:14;;;;;;;233.33;95.73;;;;;;;;;;5072791;28;20396;-46
2023/09/01 04:58:40;;;;;;;235.07;96.53;;;;;;;;;;5072668;28;20451;-47
2023/09/01 05:01:06;;;;;;;232.17;94.30;;;;;;;;;;5072478;28;20443;-46
2023/09/01 05:03:32;;;;;;;233.33;97.67;;;;;;;;;;5072441;28;20424;-48
2023/09/01 05:05:58;;;;;;;234.17;96.77;;;;;;;;;;5072582;28;20397;-48
2023/09/01 05:08:24;;;;;;;236.03;96.10;;;;;;;;;;5072657;28;20819;-47
2023/09/01 05:10:51;;;;;;;237.97;96.57;;;;;;;;;;5072317;28;20823;-47
2023/09/01 05:13:17;;;;;;;233.60;93.73;;;;;;;;;;5072406;28;20428;-46
2023/09/01 05:15:43;;;;;;;234.33;94.40;;;;;;;;;;5072479;28;20480;-46
2023/09/01 05:18:09;;;;;;;238.57;96.00;;;;;;;;;;5072205;28;20854;-47
2023/09/01 05:20:35;;;;;;;236.83;93.37;;;;;;;;;;5072313;28;20397;-46
2023/09/01 05:23:01;;;;;;;235.20;93.40;;;;;;;;;;5072242;28;20416;-46
2023/09/01 05:25:27;;;;;;;237.97;96.03;;;;;;;;;;5072197;28;20401;-46
2023/09/01 05:27:53;;;;;;;236.90;95.43;;;;;;;;;;5072214;28;20479;-46
2023/09/01 05:30:19;;;;;;;238.10;93.40;;;;;;;;;;5071698;28;20438;-46
2023/09/01 05:32:45;;;;;;;235.60;95.07;;;;;;;;;;5071568;28;20424;-46
2023/09/01 05:35:11;;;;;;;239.13;97.70;;;;;;;;;;5071468;28;20428;-47
2023/09/01 05:37:37;;;;;;;236.47;93.10;;;;;;;;;;5071547;28;20513;-46
2023/09/01 05:40:03;;;;;;;237.43;93.17;;;;;;;;;;5071275;28;20403;-46
2023/09/01 05:42:29;;;;;;;239.40;99.20;;;;;;;;;;5071430;28;20436;-46
2023/09/01 05:44:55;;;;;;;250.60;105.23;;;;;;;;;;5071097;28;20407;-46
2023/09/01 05:47:21;;;;;;;237.50;99.10;;;;;;;;;;5071515;28;20392;-47
2023/09/01 05:49:47;;;;;;;243.27;100.47;;;;;;;;;;5071247;28;20538;-46
2023/09/01 05:52:13;;;;;;;239.23;97.03;;;;;;;;;;5081138;28;20460;-47
2023/09/01 05:54:39;;;;;;;239.67;96.97;;;;;;;;;;5091985;28;20418;-46
2023/09/01 05:57:05;;;;;;;239.73;97.13;;;;;;;;;;5091893;28;20404;-48
2023/09/01 05:59:31;;;;;;;241.53;98.27;;;;;;;;;;5091859;28;20459;-46
2023/09/01 06:01:57;;;;;;;240.90;98.13;;;;;;;;;;5091853;28;20399;-47
2023/09/01 06:04:23;;;;;;;239.07;95.37;;;;;;;;;;5091944;28;20420;-46
2023/09/01 06:06:49;;;;;;;239.17;97.37;;;;;;;;;;5092279;28;20392;-46
2023/09/01 06:09:16;;;;;;;240.67;100.00;;;;;;;;;;5091935;28;20408;-48
2023/09/01 06:11:42;;;;;;;240.57;99.30;;;;;;;;;;5091699;28;20479;-47
2023/09/01 06:14:08;;;;;;;239.80;96.37;;;;;;;;;;5093279;28;20459;-47
2023/09/01 06:16:34;;;;;;;240.30;97.80;;;;;;;;;;5098741;28;20871;-47
2023/09/01 06:19:00;;;;;;;237.97;96.20;;;;;;;;;;5098531;28;20504;-46
2023/09/01 06:21:26;;;;;;;235.00;95.03;;;;;;;;;;5098392;28;20461;-46
2023/09/01 06:23:52;;;;;;;238.57;101.43;;;;;;;;;;5098445;28;20428;-48
2023/09/01 06:26:18;;;;;;;236.67;98.67;;;;;;;;;;5098435;28;20415;-47
2023/09/01 06:28:45;;;;;;;239.40;100.53;;;;;;;;;;5098487;28;20412;-46
2023/09/01 06:31:12;;;;;;;235.67;97.10;;;;;;;;;;5082981;28;20456;-46
2023/09/01 06:33:40;;;;;;;239.77;102.40;;;;;;;;;;5067640;28;20469;-47
2023/09/01 06:36:06;;;;;;;239.37;102.00;;;;;;;;;;5085650;28;20464;-47
2023/09/01 06:38:32;;;;;;;238.37;104.20;;;;;;;;;;5077768;28;21021;-47
2023/09/01 06:40:58;;;;;;;244.27;106.03;;;;;;;;;;5077529;28;20402;-47
2023/09/01 06:43:24;;;;;;;242.27;104.83;;;;;;;;;;5077860;28;20490;-46
2023/09/01 06:45:50;;;;;;;243.10;106.13;;;;;;;;;;5076816;28;20440;-47
2023/09/01 06:48:16;;;;;;;241.60;109.97;;;;;;;;;;5075760;28;20486;-47
2023/09/01 06:50:42;;;;;;;241.53;107.97;;;;;;;;;;5077452;28;20423;-47
2023/09/01 06:53:08;;;;;;;239.97;106.07;;;;;;;;;;5082143;28;20441;-46
2023/09/01 06:55:33;;;;;;;239.50;105.33;;;;;;;;;;5077487;28;20450;-46
2023/09/01 06:57:59;;;;;;;242.47;109.57;;;;;;;;;;5077578;28;20495;-47
2023/09/01 07:00:26;;;;;;;236.87;102.63;;;;;;;;;;5077580;28;20440;-46
2023/09/01 07:02:53;;;;;;;240.03;105.83;;;;;;;;;;5071380;28;20444;-47
2023/09/01 07:05:19;;;;;;;239.43;106.33;;;;;;;;;;5077605;28;20501;-47
2023/09/01 07:07:45;;;;;;;240.07;107.63;;;;;;;;;;5077711;28;20428;-46
2023/09/01 07:10:11;;;;;;;243.40;110.97;;;;;;;;;;5077217;28;20984;-47
2023/09/01 07:12:37;;;;;;;239.90;107.33;;;;;;;;;;5077476;28;20410;-46
2023/09/01 07:15:04;;;;;;;238.03;105.33;;;;;;;;;;5077558;28;20440;-46
2023/09/01 07:17:30;;;;;;;240.67;108.07;;;;;;;;;;5077366;28;20755;-45
2023/09/01 07:19:56;;;;;;;241.80;107.00;;;;;;;;;;5077416;28;20405;-46
2023/09/01 07:22:22;;;;;;;238.97;105.93;;;;;;;;;;5077418;28;20836;-46
2023/09/01 07:24:48;;;;;;;238.53;106.03;;;;;;;;;;5077272;28;20405;-46
2023/09/01 07:27:14;;;;;;;240.67;108.83;;;;;;;;;;5073130;28;20444;-47
2023/09/01 07:29:41;;;;;;;243.40;113.73;;;;;;;;;;5074115;28;20413;-46
2023/09/01 07:32:07;;;;;;;241.03;110.27;;;;;;;;;;5074265;28;20541;-47
2023/09/01 07:34:34;;;;;;;237.57;107.10;;;;;;;;;;5074041;28;20896;-48
2023/09/01 07:37:00;;;;;;;238.93;107.17;;;;;;;;;;5074085;28;20398;-46
2023/09/01 07:39:26;;;;;;;240.53;106.37;;;;;;;;;;5073859;28;20859;-46
2023/09/01 07:41:52;;;;;;;241.13;109.87;;;;;;;;;;5073908;28;20409;-47
2023/09/01 07:44:20;;;;;;;238.90;108.40;;;;;;;;;;5073821;28;20964;-46
2023/09/01 07:46:46;;;;;;;241.43;111.67;;;;;;;;;;5074112;28;20404;-46
2023/09/01 07:49:12;;;;;;;241.07;108.50;;;;;;;;;;5074019;28;20444;-47
2023/09/01 07:51:38;;;;;;;237.37;101.17;;;;;;;;;;5073507;28;20428;-47
2023/09/01 07:54:04;;;;;;;239.07;106.23;;;;;;;;;;5073542;28;20809;-46
2023/09/01 07:56:32;;;;;;;240.50;107.97;;;;;;;;;;5073437;28;20412;-46
2023/09/01 07:58:58;;;;;;;242.10;109.63;;;;;;;;;;5073907;28;20450;-46
2023/09/01 08:01:24;;;;;;;241.23;109.67;;;;;;;;;;5073685;28;20759;-46
2023/09/01 08:03:50;;;;;;;240.30;108.47;;;;;;;;;;5073715;28;20432;-46
2023/09/01 08:06:16;;;;;;;239.77;108.37;;;;;;;;;;5073522;28;20401;-46
2023/09/01 08:08:42;;;;;;;241.50;111.63;;;;;;;;;;5073782;28;20491;-46
2023/09/01 08:11:08;;;;;;;240.93;109.87;;;;;;;;;;5073526;28;20766;-46
2023/09/01 08:13:34;;;;;;;241.37;109.43;;;;;;;;;;5073642;28;20425;-47
2023/09/01 08:16:00;;;;;;;241.80;111.50;;;;;;;;;;5073915;28;20807;-47
2023/09/01 08:18:26;;;;;;;238.70;106.00;;;;;;;;;;5073483;28;20965;-45
2023/09/01 08:20:52;;;;;;;240.50;107.83;;;;;;;;;;5073373;28;20459;-46
2023/09/01 08:23:21;;;;;;;240.33;108.63;;;;;;;;;;5073736;28;20420;-47
2023/09/01 08:25:47;;;;;;;241.87;106.57;;;;;;;;;;5073371;28;20404;-46
2023/09/01 08:28:13;;;;;;;242.87;108.10;;;;;;;;;;5073343;28;20758;-46
2023/09/01 08:30:39;;;;;;;243.77;110.77;;;;;;;;;;5073171;28;20477;-46
2023/09/01 08:33:05;;;;;;;240.57;110.07;;;;;;;;;;5070284;28;20955;-46
2023/09/01 08:35:31;;;;;;;244.10;112.20;;;;;;;;;;5079230;28;20407;-46
2023/09/01 08:37:57;;;;;;;240.63;107.03;;;;;;;;;;5072433;28;20449;-46
2023/09/01 08:40:23;;;;;;;242.33;108.57;;;;;;;;;;5076300;28;20406;-46
2023/09/01 08:42:50;;;;;;;244.07;112.97;;;;;;;;;;5092900;28;20509;-47
2023/09/01 08:45:16;;;;;;;245.07;110.60;;;;;;;;;;5092822;28;20451;-46
2023/09/01 08:47:53;;;;;;;240.87;110.03;;;;;;;;;;5093264;28;20403;-46
2023/09/01 08:50:21;;;;;;;241.83;111.70;;;;;;;;;;5065201;28;20509;-46
2023/09/01 08:52:47;;;;;;;241.87;111.03;;;;;;;;;;5071564;28;20438;-46
2023/09/01 08:55:14;;;;;;;244.67;116.57;;;;;;;;;;5072480;28;20467;-46
2023/09/01 08:57:40;;;;;;;242.27;114.13;;;;;;;;;;5072771;28;20435;-46
2023/09/01 09:00:09;;;;;;;242.00;112.93;;;;;;;;;;5072451;28;20403;-46
2023/09/01 09:02:36;;;;;;;239.43;110.30;;;;;;;;;;5072559;28;20409;-46
2023/09/01 09:05:06;;;;;;;243.47;117.23;;;;;;;;;;5072154;28;20817;-46
2023/09/01 09:07:32;;;;;;;244.90;116.97;;;;;;;;;;5072539;28;20450;-46
2023/09/01 09:10:00;;;;;;;245.43;116.93;;;;;;;;;;5072366;28;20428;-46
2023/09/01 09:12:39;;;;;;;246.67;118.80;;;;;;;;;;5072375;28;20407;-47
2023/09/01 09:15:05;;;;;;;246.27;121.27;;;;;;;;;;5072320;28;20879;-46
2023/09/01 09:17:43;;;;;;;241.43;112.37;;;;;;;;;;5072647;28;20851;-46
2023/09/01 09:20:09;;;;;;;242.00;114.07;;;;;;;;;;5072121;28;20442;-46
2023/09/01 09:22:51;;;;;;;241.77;113.07;;;;;;;;;;5072410;28;20394;-46
2023/09/01 09:25:30;;;;;;;241.87;114.53;;;;;;;;;;5072868;28;20402;-46
2023/09/01 09:27:58;;;;;;;242.33;112.53;;;;;;;;;;5072345;28;20418;-47
2023/09/01 09:30:27;;;;;;;245.03;116.47;;;;;;;;;;5072074;28;20434;-46
2023/09/01 09:33:00;;;;;;;243.27;114.63;;;;;;;;;;5072225;28;20410;-46
2023/09/01 09:35:26;;;;;;;244.17;113.87;;;;;;;;;;5072090;28;20438;-46
2023/09/01 09:37:59;;;;;;;240.97;114.83;;;;;;;;;;5071973;28;20401;-45
2023/09/01 09:40:25;;;;;;;241.20;113.97;;;;;;;;;;5072025;28;20909;-47
2023/09/01 09:42:51;;;;;;;241.70;114.47;;;;;;;;;;5073377;28;20423;-46
2023/09/01 09:45:32;;;;;;;237.83;107.93;;;;;;;;;;5071995;28;20825;-45
2023/09/01 09:47:59;;;;;;;241.07;109.77;;;;;;;;;;5072068;28;20404;-46
2023/09/01 09:50:25;;;;;;;240.53;106.30;;;;;;;;;;5070825;28;20442;-45
2023/09/01 09:53:01;;;;;;;236.73;103.97;;;;;;;;;;5086788;28;20423;-45
2023/09/01 09:55:28;;;;;;;237.90;105.10;;;;;;;;;;5092156;28;20404;-45
2023/09/01 09:58:04;;;;;;;236.90;102.80;;;;;;;;;;5091943;28;20894;-46
2023/09/01 10:00:36;;;;;;;239.17;105.03;;;;;;;;;;5085700;28;20409;-46
2023/09/01 10:03:03;;;;;;;235.50;98.27;;;;;;;;;;5071618;28;20413;-46
2023/09/01 10:05:32;;;;;;;237.77;102.03;;;;;;;;;;5071241;28;20403;-46
2023/09/01 10:07:58;;;;;;;234.30;96.93;;;;;;;;;;5071686;28;20432;-47
2023/09/01 10:10:24;;;;;;;238.03;102.03;;;;;;;;;;5071400;28;20413;-47
2023/09/01 10:12:51;;;;;;;238.17;105.23;;;;;;;;;;5071875;28;20431;-47
2023/09/01 10:15:18;;;;;;;234.97;102.07;;;;;;;;;;5071565;28;20770;-46
2023/09/01 10:17:46;;;;;;;235.73;100.83;;;;;;;;;;5071418;28;20408;-46
2023/09/01 10:20:12;;;;;;;237.17;104.33;;;;;;;;;;5071312;28;20397;-47
2023/09/01 10:22:38;;;;;;;237.73;102.80;;;;;;;;;;5071449;28;20409;-46
2023/09/01 10:25:10;;;;;;;237.40;105.10;;;;;;;;;;5071400;28;20515;-46
2023/09/01 10:27:37;;;;;;;233.17;99.63;;;;;;;;;;5071687;28;20401;-46
2023/09/01 10:30:23;;;;;;;239.77;107.80;;;;;;;;;;5071325;28;20398;-46
2023/09/01 10:32:49;;;;;;;238.67;103.77;;;;;;;;;;5071432;28;20891;-46
2023/09/01 10:35:34;;;;;;;240.30;107.47;;;;;;;;;;5071248;28;20467;-47
2023/09/01 10:38:11;;;;;;;234.37;100.70;;;;;;;;;;5071832;28;20921;-46
2023/09/01 10:40:47;;;;;;;237.90;106.77;;;;;;;;;;5071532;28;20477;-46
2023/09/01 10:43:15;;;;;;;236.07;105.83;;;;;;;;;;5071235;28;20529;-46
2023/09/01 10:45:41;;;;;;;241.43;111.80;;;;;;;;;;5071266;28;20432;-46
2023/09/01 10:48:11;;;;;;;245.23;109.10;;;;;;;;;;5071071;28;20885;-46
2023/09/01 10:50:40;;;;;;;240.30;104.87;;;;;;;;;;5060885;28;20449;-47
2023/09/01 10:53:25;;;;;;;241.50;105.70;;;;;;;;;;5051223;28;20963;-46
2023/09/01 10:56:04;;;;;;;241.87;108.57;;;;;;;;;;5051004;28;20443;-47
2023/09/01 10:58:39;;;;;;;242.37;109.30;;;;;;;;;;5069756;28;20451;-46
2023/09/01 11:01:24;;;;;;;245.80;115.17;;;;;;;;;;5065861;28;20428;-46
2023/09/01 11:03:50;;;;;;;243.50;113.43;;;;;;;;;;5065069;28;20455;-46
2023/09/01 11:06:16;;;;;;;246.57;111.37;;;;;;;;;;5073197;28;20473;-47
2023/09/01 11:08:56;;;;;;;245.33;115.03;;;;;;;;;;5066478;28;20456;-46
2023/09/01 11:11:22;;;;;;;244.30;116.33;;;;;;;;;;5067283;28;20433;-46
2023/09/01 11:13:53;;;;;;;242.73;115.00;;;;;;;;;;5074534;28;20892;-46
2023/09/01 11:16:19;;;;;;;245.07;117.60;;;;;;;;;;5069367;28;20477;-46
2023/09/01 11:18:46;;;;;;;247.83;118.40;;;;;;;;;;5066392;28;20498;-47
2023/09/01 11:21:12;;;;;;;243.30;114.93;;;;;;;;;;5073192;28;20411;-46
2023/09/01 11:23:39;;;;;;;249.17;120.57;;;;;;;;;;5073188;28;20807;-46
2023/09/01 11:26:05;;;;;;;246.27;121.63;;;;;;;;;;5059723;28;20436;-46
2023/09/01 11:28:31;;;;;;;247.03;120.07;;;;;;;;;;5070032;28;20435;-47
2023/09/01 11:30:59;;;;;;;248.40;124.27;;;;;;;;;;5064879;28;20489;-46
2023/09/01 11:33:26;;;;;;;248.93;121.70;;;;;;;;;;5072757;28;20453;-47
2023/09/01 11:36:11;;;;;;;247.90;123.77;;;;;;;;;;5065870;28;20437;-48
2023/09/01 11:38:37;;;;;;;242.87;121.67;;;;;;;;;;5064670;28;20461;-45
2023/09/01 11:41:08;;;;;;;241.47;122.43;;;;;;;;;;5070166;28;20401;-45
2023/09/01 11:43:34;;;;;;;246.10;126.10;;;;;;;;;;5072659;28;20419;-46
2023/09/01 11:46:00;;;;;;;244.50;128.70;;;;;;;;;;5068076;28;20428;-45
2023/09/01 11:48:31;;;;;;;242.57;126.53;;;;;;;;;;5074162;28;20490;-46
2023/09/01 11:50:58;;;;;;;243.97;124.83;;;;;;;;;;5073740;28;20424;-45
2023/09/01 11:53:32;;;;;;;242.17;127.37;;;;;;;;;;5074064;28;20434;-46
2023/09/01 11:55:58;;;;;;;257.00;138.33;;;;;;;;;;5070666;28;20414;-45
2023/09/01 11:58:33;;;;;;;243.47;125.17;;;;;;;;;;5073082;28;20813;-45
2023/09/01 12:01:08;;;;;;;241.53;126.17;;;;;;;;;;5073895;28;20433;-46
2023/09/01 12:03:34;;;;;;;248.43;131.80;;;;;;;;;;5070015;28;20458;-45
2023/09/01 12:06:00;;;;;;;244.73;128.57;;;;;;;;;;5059798;28;20515;-46
2023/09/01 12:08:26;;;;;;;246.63;131.13;;;;;;;;;;5070006;28;20440;-46
2023/09/01 12:11:05;;;;;;;249.77;128.80;;;;;;;;;;5067125;28;20493;-46
2023/09/01 12:13:31;;;;;;;248.67;137.10;;;;;;;;;;5061164;28;20441;-46
2023/09/01 12:16:03;;;;;;;243.10;130.03;;;;;;;;;;5073131;28;20410;-45
2023/09/01 12:18:33;;;;;;;246.90;135.23;;;;;;;;;;5073567;28;20516;-45
2023/09/01 12:21:10;;;;;;;242.87;127.07;;;;;;;;;;5073391;28;20400;-45
2023/09/01 12:23:39;;;;;;;249.60;134.40;;;;;;;;;;5072716;28;20481;-46
2023/09/01 12:26:06;;;;;;;247.50;132.03;;;;;;;;;;5072941;28;20408;-47
2023/09/01 12:28:32;;;;;;;250.97;140.47;;;;;;;;;;5073275;28;20914;-45
2023/09/01 12:30:59;;;;;;;250.60;144.80;;;;;;;;;;5070809;28;20459;-46
2023/09/01 12:33:25;;;;;;;249.13;134.83;;;;;;;;;;5061067;28;20870;-47
2023/09/01 12:35:52;;;;;;;248.73;134.43;;;;;;;;;;5069963;28;20432;-46
2023/09/01 12:38:18;;;;;;;244.63;129.57;;;;;;;;;;5067515;28;20460;-46
2023/09/01 12:40:44;;;;;;;245.07;132.77;;;;;;;;;;5073039;28;20400;-46
2023/09/01 12:43:10;;;;;;;245.23;131.07;;;;;;;;;;5073070;28;20477;-47
2023/09/01 12:45:36;;;;;;;247.27;135.63;;;;;;;;;;5067794;28;20428;-46
2023/09/01 12:48:03;;;;;;;247.93;138.50;;;;;;;;;;5062605;28;20420;-47
2023/09/01 12:50:29;;;;;;;248.63;137.00;;;;;;;;;;5052702;28;20808;-46
2023/09/01 12:52:56;;;;;;;250.60;142.30;;;;;;;;;;5072797;28;20439;-47
2023/09/01 12:55:22;;;;;;;248.83;140.70;;;;;;;;;;5072831;28;20415;-47
2023/09/01 12:57:48;;;;;;;254.30;147.17;;;;;;;;;;5068923;28;20420;-46
2023/09/01 13:00:14;;;;;;;253.03;148.97;;;;;;;;;;5069847;28;20813;-46
2023/09/01 13:02:41;;;;;;;259.30;151.13;;;;;;;;;;5062090;28;20426;-46
2023/09/01 13:05:07;;;;;;;261.03;148.47;;;;;;;;;;5063641;28;20422;-46
2023/09/01 13:07:33;;;;;;;253.47;148.10;;;;;;;;;;5067034;28;20396;-46
2023/09/01 13:09:59;;;;;;;256.33;150.17;;;;;;;;;;5072408;28;20428;-46
2023/09/01 13:12:25;;;;;;;254.63;146.20;;;;;;;;;;5067107;28;20550;-47
2023/09/01 13:14:51;;;;;;;255.90;147.80;;;;;;;;;;5072483;28;20409;-46
2023/09/01 13:17:17;;;;;;;254.33;146.03;;;;;;;;;;5068036;28;20428;-46
2023/09/01 13:19:44;;;;;;;259.50;153.17;;;;;;;;;;5069105;28;20556;-47
2023/09/01 13:22:10;;;;;;;259.13;157.50;;;;;;;;;;5067235;28;20426;-46
2023/09/01 13:24:35;;;;;;;255.23;150.20;;;;;;;;;;5069816;28;20448;-47
2023/09/01 13:27:01;;;;;;;254.87;148.07;;;;;;;;;;5073346;28;20417;-46
2023/09/01 13:29:27;;;;;;;253.17;143.60;;;;;;;;;;5077825;28;20432;-46
2023/09/01 13:31:53;;;;;;;255.80;151.30;;;;;;;;;;5078479;28;20482;-46
2023/09/01 13:34:19;;;;;;;256.50;146.03;;;;;;;;;;5070024;28;20500;-46
2023/09/01 13:36:45;;;;;;;251.87;138.77;;;;;;;;;;5064768;28;20455;-46
2023/09/01 13:39:11;;;;;;;251.97;139.70;;;;;;;;;;5071962;28;20456;-47
2023/09/01 13:41:37;;;;;;;253.93;144.03;;;;;;;;;;5058676;28;20424;-46
2023/09/01 13:44:03;;;;;;;252.33;140.63;;;;;;;;;;5066738;28;20487;-46
2023/09/01 13:46:31;;;;;;;253.27;140.40;;;;;;;;;;5066588;28;20794;-46
2023/09/01 13:48:57;;;;;;;261.03;164.13;;;;;;;;;;5062550;28;20437;-46
2023/09/01 13:51:24;;;;;;;263.40;151.40;;;;;;;;;;5068554;28;20818;-46
2023/09/01 13:53:51;;;;;;;253.83;151.10;;;;;;;;;;5068137;28;20448;-47
2023/09/01 13:56:17;;;;;;;259.80;152.23;;;;;;;;;;5056654;28;20436;-45
2023/09/01 13:58:43;;;;;;;254.53;147.93;;;;;;;;;;5071277;28;20448;-45
2023/09/01 14:01:09;;;;;;;255.40;151.17;;;;;;;;;;5067472;28;20414;-46
2023/09/01 14:03:35;;;;;;;259.97;150.90;;;;;;;;;;5064294;28;20501;-45
2023/09/01 14:06:01;;;;;;;263.93;162.30;;;;;;;;;;5062323;28;20443;-46